sensor_id;sensor_type;location;lat;lon;timestamp;pressure;altitude;pressure_sealevel;temperature;humidity
56831;BME280;42713;42.676;23.352;2023-09-19T00:01:22;95156.19;;;19.91;52.87
56831;BME280;42713;42.676;23.352;2023-09-19T00:03:48;95157.88;;;19.87;53.00
56831;BME280;42713;42.676;23.352;2023-09-19T00:06:13;95164.28;;;19.81;53.21
56831;BME280;42713;42.676;23.352;2023-09-19T00:08:40;95168.03;;;19.80;53.41
56831;BME280;42713;42.676;23.352;2023-09-19T00:11:09;95168.34;;;19.78;53.49
56831;BME280;42713;42.676;23.352;2023-09-19T00:13:36;95155.84;;;19.79;53.56
56831;BME280;42713;42.676;23.352;2023-09-19T00:16:08;95158.56;;;19.73;53.69
56831;BME280;42713;42.676;23.352;2023-09-19T00:18:36;95156.47;;;19.70;53.72
56831;BME280;42713;42.676;23.352;2023-09-19T00:21:02;95161.22;;;19.73;53.74
56831;BME280;42713;42.676;23.352;2023-09-19T00:23:30;95153.34;;;19.68;53.71
56831;BME280;42713;42.676;23.352;2023-09-19T00:26:00;95156.28;;;19.67;53.93
56831;BME280;42713;42.676;23.352;2023-09-19T00:28:26;95153.09;;;19.65;53.95
56831;BME280;42713;42.676;23.352;2023-09-19T00:30:52;95153.97;;;19.60;54.02
56831;BME280;42713;42.676;23.352;2023-09-19T00:33:23;95148.75;;;19.55;54.45
56831;BME280;42713;42.676;23.352;2023-09-19T00:35:51;95148.53;;;19.51;54.61
56831;BME280;42713;42.676;23.352;2023-09-19T00:38:19;95146.97;;;19.50;54.67
56831;BME280;42713;42.676;23.352;2023-09-19T00:40:53;95140.84;;;19.50;54.90
56831;BME280;42713;42.676;23.352;2023-09-19T00:43:19;95138.47;;;19.48;54.54
56831;BME280;42713;42.676;23.352;2023-09-19T00:45:48;95136.13;;;19.47;54.91
56831;BME280;42713;42.676;23.352;2023-09-19T00:48:15;95124.78;;;19.41;54.99
56831;BME280;42713;42.676;23.352;2023-09-19T00:50:41;95123.78;;;19.37;55.29
56831;BME280;42713;42.676;23.352;2023-09-19T00:53:09;95134.69;;;19.35;55.41
56831;BME280;42713;42.676;23.352;2023-09-19T00:55:39;95133.91;;;19.35;55.56
56831;BME280;42713;42.676;23.352;2023-09-19T00:58:05;95141.06;;;19.34;55.44
56831;BME280;42713;42.676;23.352;2023-09-19T01:00:33;95139.84;;;19.26;55.75
56831;BME280;42713;42.676;23.352;2023-09-19T01:03:02;95130.38;;;19.20;55.87
56831;BME280;42713;42.676;23.352;2023-09-19T01:05:28;95139.13;;;19.21;55.83
56831;BME280;42713;42.676;23.352;2023-09-19T01:07:55;95132.31;;;19.15;56.12
56831;BME280;42713;42.676;23.352;2023-09-19T01:10:20;95136.91;;;19.09;56.37
56831;BME280;42713;42.676;23.352;2023-09-19T01:13:48;95144.31;;;19.12;56.30
56831;BME280;42713;42.676;23.352;2023-09-19T01:18:47;95133.25;;;19.05;56.78
56831;BME280;42713;42.676;23.352;2023-09-19T01:29:42;95142.34;;;18.98;57.20
56831;BME280;42713;42.676;23.352;2023-09-19T01:32:11;95137.63;;;18.90;57.28
56831;BME280;42713;42.676;23.352;2023-09-19T01:34:53;95142.66;;;18.92;57.62
56831;BME280;42713;42.676;23.352;2023-09-19T01:37:20;95130.44;;;18.91;57.58
56831;BME280;42713;42.676;23.352;2023-09-19T01:39:52;95131.09;;;18.82;57.57
56831;BME280;42713;42.676;23.352;2023-09-19T01:47:37;95134.81;;;18.81;57.74
56831;BME280;42713;42.676;23.352;2023-09-19T01:52:49;95127.50;;;18.73;57.84
56831;BME280;42713;42.676;23.352;2023-09-19T01:55:20;95134.16;;;18.71;58.53
56831;BME280;42713;42.676;23.352;2023-09-19T01:58:11;95131.84;;;18.64;58.42
56831;BME280;42713;42.676;23.352;2023-09-19T02:00:41;95127.59;;;18.63;58.56
56831;BME280;42713;42.676;23.352;2023-09-19T02:03:10;95139.28;;;18.62;58.67
56831;BME280;42713;42.676;23.352;2023-09-19T02:05:37;95144.66;;;18.57;58.80
56831;BME280;42713;42.676;23.352;2023-09-19T02:08:03;95150.25;;;18.55;58.79
56831;BME280;42713;42.676;23.352;2023-09-19T02:10:30;95143.16;;;18.50;58.83
56831;BME280;42713;42.676;23.352;2023-09-19T02:12:55;95134.69;;;18.48;59.08
56831;BME280;42713;42.676;23.352;2023-09-19T02:15:21;95138.41;;;18.47;59.51
56831;BME280;42713;42.676;23.352;2023-09-19T02:17:47;95136.03;;;18.46;59.28
56831;BME280;42713;42.676;23.352;2023-09-19T02:20:13;95136.88;;;18.41;59.26
56831;BME280;42713;42.676;23.352;2023-09-19T02:22:42;95143.47;;;18.44;59.56
56831;BME280;42713;42.676;23.352;2023-09-19T02:25:08;95135.00;;;18.42;59.40
56831;BME280;42713;42.676;23.352;2023-09-19T02:27:34;95140.09;;;18.38;59.71
56831;BME280;42713;42.676;23.352;2023-09-19T02:30:00;95135.63;;;18.33;59.72
56831;BME280;42713;42.676;23.352;2023-09-19T02:32:29;95136.91;;;18.36;59.95
56831;BME280;42713;42.676;23.352;2023-09-19T02:34:57;95128.44;;;18.34;59.73
56831;BME280;42713;42.676;23.352;2023-09-19T02:37:23;95124.50;;;18.31;60.10
56831;BME280;42713;42.676;23.352;2023-09-19T02:39:49;95118.69;;;18.29;60.03
56831;BME280;42713;42.676;23.352;2023-09-19T02:42:14;95119.50;;;18.30;60.17
56831;BME280;42713;42.676;23.352;2023-09-19T02:44:40;95108.38;;;18.28;60.13
56831;BME280;42713;42.676;23.352;2023-09-19T02:47:05;95107.63;;;18.22;60.16
56831;BME280;42713;42.676;23.352;2023-09-19T02:49:31;95108.69;;;18.21;59.92
56831;BME280;42713;42.676;23.352;2023-09-19T02:51:56;95107.41;;;18.18;60.09
56831;BME280;42713;42.676;23.352;2023-09-19T02:54:24;95108.19;;;18.19;60.34
56831;BME280;42713;42.676;23.352;2023-09-19T02:56:49;95089.69;;;18.14;60.46
56831;BME280;42713;42.676;23.352;2023-09-19T02:59:15;95097.13;;;18.12;60.48
56831;BME280;42713;42.676;23.352;2023-09-19T03:01:43;95096.59;;;18.15;60.58
56831;BME280;42713;42.676;23.352;2023-09-19T03:04:09;95095.00;;;18.14;60.83
56831;BME280;42713;42.676;23.352;2023-09-19T03:06:36;95097.41;;;18.10;60.87
56831;BME280;42713;42.676;23.352;2023-09-19T03:09:03;95097.97;;;18.07;60.74
56831;BME280;42713;42.676;23.352;2023-09-19T03:11:32;95093.81;;;18.01;61.17
56831;BME280;42713;42.676;23.352;2023-09-19T03:13:58;95085.34;;;17.99;60.84
56831;BME280;42713;42.676;23.352;2023-09-19T03:16:23;95087.22;;;17.93;61.06
56831;BME280;42713;42.676;23.352;2023-09-19T03:18:50;95085.19;;;17.85;61.41
56831;BME280;42713;42.676;23.352;2023-09-19T03:21:16;95091.53;;;17.84;61.92
56831;BME280;42713;42.676;23.352;2023-09-19T03:23:42;95083.63;;;17.79;61.62
56831;BME280;42713;42.676;23.352;2023-09-19T03:26:11;95083.91;;;17.77;61.84
56831;BME280;42713;42.676;23.352;2023-09-19T03:28:37;95083.69;;;17.73;62.12
56831;BME280;42713;42.676;23.352;2023-09-19T03:31:04;95084.50;;;17.69;62.21
56831;BME280;42713;42.676;23.352;2023-09-19T03:33:30;95084.31;;;17.60;62.11
56831;BME280;42713;42.676;23.352;2023-09-19T03:35:59;95092.22;;;17.65;62.35
56831;BME280;42713;42.676;23.352;2023-09-19T03:38:26;95092.84;;;17.57;62.21
56831;BME280;42713;42.676;23.352;2023-09-19T03:40:52;95091.50;;;17.54;62.79
56831;BME280;42713;42.676;23.352;2023-09-19T03:43:17;95094.97;;;17.50;62.83
56831;BME280;42713;42.676;23.352;2023-09-19T03:45:44;95100.03;;;17.46;63.05
56831;BME280;42713;42.676;23.352;2023-09-19T03:48:10;95103.81;;;17.40;62.64
56831;BME280;42713;42.676;23.352;2023-09-19T03:50:36;95107.00;;;17.37;63.10
56831;BME280;42713;42.676;23.352;2023-09-19T03:53:01;95107.56;;;17.34;62.96
56831;BME280;42713;42.676;23.352;2023-09-19T03:55:27;95109.69;;;17.32;63.05
56831;BME280;42713;42.676;23.352;2023-09-19T03:57:53;95117.13;;;17.30;63.59
56831;BME280;42713;42.676;23.352;2023-09-19T04:00:19;95112.09;;;17.28;63.57
56831;BME280;42713;42.676;23.352;2023-09-19T04:02:48;95108.41;;;17.24;63.39
56831;BME280;42713;42.676;23.352;2023-09-19T04:05:13;95114.25;;;17.21;63.92
56831;BME280;42713;42.676;23.352;2023-09-19T04:07:40;95105.53;;;17.15;63.93
56831;BME280;42713;42.676;23.352;2023-09-19T04:10:06;95112.69;;;17.15;63.70
56831;BME280;42713;42.676;23.352;2023-09-19T04:12:34;95118.03;;;17.09;63.93
56831;BME280;42713;42.676;23.352;2023-09-19T04:14:59;95114.63;;;17.04;63.88
56831;BME280;42713;42.676;23.352;2023-09-19T04:17:25;95125.16;;;17.09;64.31
56831;BME280;42713;42.676;23.352;2023-09-19T04:19:50;95136.56;;;17.09;64.35
56831;BME280;42713;42.676;23.352;2023-09-19T04:22:15;95133.13;;;17.09;64.89
56831;BME280;42713;42.676;23.352;2023-09-19T04:24:41;95128.34;;;17.11;64.36
56831;BME280;42713;42.676;23.352;2023-09-19T04:27:06;95128.63;;;17.09;64.63
56831;BME280;42713;42.676;23.352;2023-09-19T04:29:32;95118.56;;;17.06;64.94
56831;BME280;42713;42.676;23.352;2023-09-19T04:31:58;95123.03;;;17.11;64.70
56831;BME280;42713;42.676;23.352;2023-09-19T04:34:24;95112.75;;;17.09;64.51
56831;BME280;42713;42.676;23.352;2023-09-19T04:36:50;95112.75;;;17.09;64.58
56831;BME280;42713;42.676;23.352;2023-09-19T04:39:15;95116.13;;;17.15;64.69
56831;BME280;42713;42.676;23.352;2023-09-19T04:41:42;95121.69;;;17.19;64.96
56831;BME280;42713;42.676;23.352;2023-09-19T04:44:07;95120.34;;;17.21;64.97
56831;BME280;42713;42.676;23.352;2023-09-19T04:46:34;95114.25;;;17.21;65.34
56831;BME280;42713;42.676;23.352;2023-09-19T04:48:59;95119.00;;;17.24;64.93
56831;BME280;42713;42.676;23.352;2023-09-19T04:51:25;95115.28;;;17.25;65.30
56831;BME280;42713;42.676;23.352;2023-09-19T04:53:54;95111.06;;;17.24;64.95
56831;BME280;42713;42.676;23.352;2023-09-19T04:56:19;95113.41;;;17.31;64.74
56831;BME280;42713;42.676;23.352;2023-09-19T04:58:49;95110.22;;;17.29;64.76
56831;BME280;42713;42.676;23.352;2023-09-19T05:01:18;95103.34;;;17.33;65.16
56831;BME280;42713;42.676;23.352;2023-09-19T05:03:43;95103.03;;;17.34;65.01
56831;BME280;42713;42.676;23.352;2023-09-19T05:06:10;95098.78;;;17.38;65.16
56831;BME280;42713;42.676;23.352;2023-09-19T05:08:35;95100.63;;;17.43;64.72
56831;BME280;42713;42.676;23.352;2023-09-19T05:11:04;95101.91;;;17.46;64.52
56831;BME280;42713;42.676;23.352;2023-09-19T05:13:29;95104.50;;;17.51;64.47
56831;BME280;42713;42.676;23.352;2023-09-19T05:16:00;95108.19;;;17.55;63.88
56831;BME280;42713;42.676;23.352;2023-09-19T05:18:26;95111.59;;;17.61;64.08
56831;BME280;42713;42.676;23.352;2023-09-19T05:20:52;95107.06;;;17.66;64.00
56831;BME280;42713;42.676;23.352;2023-09-19T05:23:17;95105.41;;;17.70;64.11
56831;BME280;42713;42.676;23.352;2023-09-19T05:25:46;95103.81;;;17.74;63.70
56831;BME280;42713;42.676;23.352;2023-09-19T05:28:11;95097.66;;;17.79;63.87
56831;BME280;42713;42.676;23.352;2023-09-19T05:30:40;95099.19;;;17.85;63.81
56831;BME280;42713;42.676;23.352;2023-09-19T05:33:08;95093.88;;;17.91;63.79
56831;BME280;42713;42.676;23.352;2023-09-19T05:35:34;95097.28;;;17.96;63.47
56831;BME280;42713;42.676;23.352;2023-09-19T05:38:04;95095.94;;;17.99;62.83
56831;BME280;42713;42.676;23.352;2023-09-19T05:40:34;95093.56;;;17.97;62.99
56831;BME280;42713;42.676;23.352;2023-09-19T05:43:01;95093.50;;;18.02;62.58
56831;BME280;42713;42.676;23.352;2023-09-19T05:45:28;95083.19;;;18.01;62.90
56831;BME280;42713;42.676;23.352;2023-09-19T05:47:54;95088.41;;;18.11;62.49
56831;BME280;42713;42.676;23.352;2023-09-19T05:50:26;95078.06;;;18.10;62.35
56831;BME280;42713;42.676;23.352;2023-09-19T05:52:52;95081.97;;;18.17;62.45
56831;BME280;42713;42.676;23.352;2023-09-19T05:55:18;95093.09;;;18.19;62.02
56831;BME280;42713;42.676;23.352;2023-09-19T05:57:49;95089.06;;;18.22;61.98
56831;BME280;42713;42.676;23.352;2023-09-19T06:00:18;95086.88;;;18.29;61.96
56831;BME280;42713;42.676;23.352;2023-09-19T06:02:52;95083.66;;;18.32;62.40
56831;BME280;42713;42.676;23.352;2023-09-19T06:05:18;95087.56;;;18.40;61.59
56831;BME280;42713;42.676;23.352;2023-09-19T06:07:43;95075.31;;;18.44;61.42
56831;BME280;42713;42.676;23.352;2023-09-19T06:10:09;95079.84;;;18.44;61.02
56831;BME280;42713;42.676;23.352;2023-09-19T06:12:54;95077.09;;;18.49;61.54
56831;BME280;42713;42.676;23.352;2023-09-19T06:15:21;95073.34;;;18.55;61.36
56831;BME280;42713;42.676;23.352;2023-09-19T06:17:51;95074.34;;;18.59;61.50
56831;BME280;42713;42.676;23.352;2023-09-19T06:20:17;95075.88;;;18.65;61.29
56831;BME280;42713;42.676;23.352;2023-09-19T06:22:44;95078.72;;;18.69;61.17
56831;BME280;42713;42.676;23.352;2023-09-19T06:25:11;95071.25;;;18.71;61.08
56831;BME280;42713;42.676;23.352;2023-09-19T06:27:40;95077.28;;;18.77;60.59
56831;BME280;42713;42.676;23.352;2023-09-19T06:30:08;95075.66;;;18.81;60.39
56831;BME280;42713;42.676;23.352;2023-09-19T06:32:34;95071.94;;;18.82;60.57
56831;BME280;42713;42.676;23.352;2023-09-19T06:34:59;95066.84;;;18.86;60.46
56831;BME280;42713;42.676;23.352;2023-09-19T06:37:29;95058.59;;;18.87;60.36
56831;BME280;42713;42.676;23.352;2023-09-19T06:40:03;95069.16;;;18.92;60.13
56831;BME280;42713;42.676;23.352;2023-09-19T06:42:30;95067.44;;;19.02;60.99
56831;BME280;42713;42.676;23.352;2023-09-19T06:44:56;95066.28;;;19.08;60.46
56831;BME280;42713;42.676;23.352;2023-09-19T06:47:21;95072.63;;;19.12;60.01
56831;BME280;42713;42.676;23.352;2023-09-19T06:49:47;95076.50;;;19.20;59.53
56831;BME280;42713;42.676;23.352;2023-09-19T06:52:13;95076.19;;;19.21;59.26
56831;BME280;42713;42.676;23.352;2023-09-19T06:54:39;95070.31;;;19.24;59.28
56831;BME280;42713;42.676;23.352;2023-09-19T06:57:05;95076.63;;;19.28;59.20
56831;BME280;42713;42.676;23.352;2023-09-19T06:59:34;95084.78;;;19.32;59.49
56831;BME280;42713;42.676;23.352;2023-09-19T07:02:01;95077.84;;;19.36;59.20
56831;BME280;42713;42.676;23.352;2023-09-19T07:04:27;95084.63;;;19.42;59.11
56831;BME280;42713;42.676;23.352;2023-09-19T07:06:52;95081.91;;;19.48;59.11
56831;BME280;42713;42.676;23.352;2023-09-19T07:09:17;95087.13;;;19.53;58.56
56831;BME280;42713;42.676;23.352;2023-09-19T07:11:47;95077.78;;;19.55;58.48
56831;BME280;42713;42.676;23.352;2023-09-19T07:14:13;95081.25;;;19.56;58.12
56831;BME280;42713;42.676;23.352;2023-09-19T07:16:39;95081.97;;;19.62;58.36
56831;BME280;42713;42.676;23.352;2023-09-19T07:19:07;95083.75;;;19.66;58.06
56831;BME280;42713;42.676;23.352;2023-09-19T07:21:33;95082.38;;;19.69;57.97
56831;BME280;42713;42.676;23.352;2023-09-19T07:24:00;95078.84;;;19.73;57.73
56831;BME280;42713;42.676;23.352;2023-09-19T07:26:27;95079.84;;;19.78;57.66
56831;BME280;42713;42.676;23.352;2023-09-19T07:28:53;95089.59;;;19.82;57.29
56831;BME280;42713;42.676;23.352;2023-09-19T07:31:19;95087.19;;;19.86;56.39
56831;BME280;42713;42.676;23.352;2023-09-19T07:33:45;95085.03;;;19.88;56.63
56831;BME280;42713;42.676;23.352;2023-09-19T07:36:11;95079.91;;;19.92;56.72
56831;BME280;42713;42.676;23.352;2023-09-19T07:38:40;95081.19;;;19.94;56.21
56831;BME280;42713;42.676;23.352;2023-09-19T07:41:07;95084.84;;;19.98;55.83
56831;BME280;42713;42.676;23.352;2023-09-19T07:43:35;95080.00;;;20.00;55.42
56831;BME280;42713;42.676;23.352;2023-09-19T07:46:08;95077.53;;;20.04;55.71
56831;BME280;42713;42.676;23.352;2023-09-19T07:48:37;95076.47;;;20.05;55.86
56831;BME280;42713;42.676;23.352;2023-09-19T07:51:05;95082.28;;;20.07;56.07
56831;BME280;42713;42.676;23.352;2023-09-19T07:53:31;95086.22;;;20.10;55.93
56831;BME280;42713;42.676;23.352;2023-09-19T07:56:08;95084.06;;;20.12;55.57
56831;BME280;42713;42.676;23.352;2023-09-19T07:58:35;95082.91;;;20.18;55.49
56831;BME280;42713;42.676;23.352;2023-09-19T08:01:07;95082.91;;;20.18;55.72
56831;BME280;42713;42.676;23.352;2023-09-19T08:03:33;95083.56;;;20.24;55.60
56831;BME280;42713;42.676;23.352;2023-09-19T08:06:02;95085.34;;;20.28;56.02
56831;BME280;42713;42.676;23.352;2023-09-19T08:08:29;95083.69;;;20.32;56.42
56831;BME280;42713;42.676;23.352;2023-09-19T08:10:55;95076.41;;;20.38;56.17
56831;BME280;42713;42.676;23.352;2023-09-19T08:13:25;95074.44;;;20.44;56.00
56831;BME280;42713;42.676;23.352;2023-09-19T08:15:51;95065.56;;;20.48;55.88
56831;BME280;42713;42.676;23.352;2023-09-19T08:18:18;95070.75;;;20.53;55.31
56831;BME280;42713;42.676;23.352;2023-09-19T08:20:52;95068.00;;;20.59;55.29
56831;BME280;42713;42.676;23.352;2023-09-19T08:23:18;95063.66;;;20.63;55.52
56831;BME280;42713;42.676;23.352;2023-09-19T08:25:46;95058.75;;;20.70;55.42
56831;BME280;42713;42.676;23.352;2023-09-19T08:28:11;95053.63;;;20.74;54.89
56831;BME280;42713;42.676;23.352;2023-09-19T08:30:45;95044.34;;;20.71;54.64
56831;BME280;42713;42.676;23.352;2023-09-19T08:33:11;95050.84;;;20.79;54.75
56831;BME280;42713;42.676;23.352;2023-09-19T08:35:37;95060.00;;;20.87;54.71
56831;BME280;42713;42.676;23.352;2023-09-19T08:38:05;95063.34;;;20.92;54.60
56831;BME280;42713;42.676;23.352;2023-09-19T08:40:32;95065.31;;;21.01;54.50
56831;BME280;42713;42.676;23.352;2023-09-19T08:42:59;95068.34;;;21.08;53.83
56831;BME280;42713;42.676;23.352;2023-09-19T08:45:26;95061.03;;;21.13;53.75
56831;BME280;42713;42.676;23.352;2023-09-19T08:53:19;95051.47;;;21.35;53.74
56831;BME280;42713;42.676;23.352;2023-09-19T08:55:50;95050.25;;;21.41;53.39
56831;BME280;42713;42.676;23.352;2023-09-19T08:58:19;95051.72;;;21.48;53.29
56831;BME280;42713;42.676;23.352;2023-09-19T09:00:48;95047.34;;;21.52;52.98
56831;BME280;42713;42.676;23.352;2023-09-19T09:03:33;95046.44;;;21.56;52.91
56831;BME280;42713;42.676;23.352;2023-09-19T09:06:00;95041.63;;;21.58;52.75
56831;BME280;42713;42.676;23.352;2023-09-19T09:08:27;95041.50;;;21.64;52.70
56831;BME280;42713;42.676;23.352;2023-09-19T09:10:53;95040.59;;;21.68;53.13
56831;BME280;42713;42.676;23.352;2023-09-19T09:13:19;95040.44;;;21.73;52.74
56831;BME280;42713;42.676;23.352;2023-09-19T09:15:47;95037.34;;;21.80;52.38
56831;BME280;42713;42.676;23.352;2023-09-19T09:18:13;95030.63;;;21.83;52.19
56831;BME280;42713;42.676;23.352;2023-09-19T09:20:38;95028.28;;;21.90;52.06
56831;BME280;42713;42.676;23.352;2023-09-19T09:23:04;95032.41;;;21.96;51.88
56831;BME280;42713;42.676;23.352;2023-09-19T09:25:51;95016.75;;;22.03;51.55
56831;BME280;42713;42.676;23.352;2023-09-19T09:28:31;95023.22;;;22.11;51.46
56831;BME280;42713;42.676;23.352;2023-09-19T09:30:58;95023.22;;;22.20;51.00
56831;BME280;42713;42.676;23.352;2023-09-19T09:33:24;95025.16;;;22.28;51.08
56831;BME280;42713;42.676;23.352;2023-09-19T09:35:54;95017.78;;;22.34;50.90
56831;BME280;42713;42.676;23.352;2023-09-19T09:38:25;95021.09;;;22.39;51.12
56831;BME280;42713;42.676;23.352;2023-09-19T09:40:53;95007.34;;;22.46;51.01
56831;BME280;42713;42.676;23.352;2023-09-19T09:43:29;95011.59;;;22.56;50.39
56831;BME280;42713;42.676;23.352;2023-09-19T09:51:46;94994.03;;;22.81;49.77
56831;BME280;42713;42.676;23.352;2023-09-19T09:54:26;94993.41;;;22.93;48.91
56831;BME280;42713;42.676;23.352;2023-09-19T09:57:10;94987.75;;;23.04;49.08
56831;BME280;42713;42.676;23.352;2023-09-19T10:02:16;94979.56;;;23.17;48.74
56831;BME280;42713;42.676;23.352;2023-09-19T10:04:56;94983.38;;;23.25;48.55
56831;BME280;42713;42.676;23.352;2023-09-19T10:07:40;94986.34;;;23.33;48.33
56831;BME280;42713;42.676;23.352;2023-09-19T10:10:15;94978.47;;;23.36;47.91
56831;BME280;42713;42.676;23.352;2023-09-19T10:12:55;94981.63;;;23.38;47.33
56831;BME280;42713;42.676;23.352;2023-09-19T10:15:32;94977.38;;;23.37;47.52
56831;BME280;42713;42.676;23.352;2023-09-19T10:18:04;94983.19;;;23.39;47.87
56831;BME280;42713;42.676;23.352;2023-09-19T10:20:30;94973.25;;;23.40;47.80
56831;BME280;42713;42.676;23.352;2023-09-19T10:23:07;94972.63;;;23.43;47.70
56831;BME280;42713;42.676;23.352;2023-09-19T10:25:40;94973.13;;;23.45;47.52
56831;BME280;42713;42.676;23.352;2023-09-19T10:28:07;94973.13;;;23.45;47.20
56831;BME280;42713;42.676;23.352;2023-09-19T10:30:47;94970.59;;;23.49;47.42
56831;BME280;42713;42.676;23.352;2023-09-19T10:33:16;94964.75;;;23.55;47.32
56831;BME280;42713;42.676;23.352;2023-09-19T10:35:47;94965.66;;;23.59;47.16
56831;BME280;42713;42.676;23.352;2023-09-19T10:38:17;94949.78;;;23.63;47.08
56831;BME280;42713;42.676;23.352;2023-09-19T10:40:44;94961.53;;;23.71;47.11
56831;BME280;42713;42.676;23.352;2023-09-19T10:43:13;94960.44;;;23.72;46.94
56831;BME280;42713;42.676;23.352;2023-09-19T10:45:41;94960.25;;;23.77;46.94
56831;BME280;42713;42.676;23.352;2023-09-19T10:48:08;94962.28;;;23.80;46.33
56831;BME280;42713;42.676;23.352;2023-09-19T10:51:08;94958.66;;;23.85;46.20
56831;BME280;42713;42.676;23.352;2023-09-19T10:56:49;94944.31;;;23.89;46.06
56831;BME280;42713;42.676;23.352;2023-09-19T10:59:18;94951.72;;;23.92;45.72
56831;BME280;42713;42.676;23.352;2023-09-19T11:04:35;94947.44;;;24.00;46.00
56831;BME280;42713;42.676;23.352;2023-09-19T11:07:14;94945.22;;;24.02;45.70
56831;BME280;42713;42.676;23.352;2023-09-19T11:09:53;94945.06;;;24.07;45.99
56831;BME280;42713;42.676;23.352;2023-09-19T11:14:55;94939.78;;;24.20;46.11
56831;BME280;42713;42.676;23.352;2023-09-19T11:30:38;94918.16;;;24.55;45.49
56831;BME280;42713;42.676;23.352;2023-09-19T11:36:08;94909.25;;;24.63;44.48
56831;BME280;42713;42.676;23.352;2023-09-19T11:43:47;94898.63;;;24.76;43.92
56831;BME280;42713;42.676;23.352;2023-09-19T11:46:13;94889.50;;;24.77;44.15
56831;BME280;42713;42.676;23.352;2023-09-19T11:48:42;94881.03;;;24.87;44.50
56831;BME280;42713;42.676;23.352;2023-09-19T11:51:11;94879.50;;;24.98;44.60
56831;BME280;42713;42.676;23.352;2023-09-19T11:53:45;94880.22;;;25.08;44.71
56831;BME280;42713;42.676;23.352;2023-09-19T11:56:17;94871.31;;;25.16;44.02
56831;BME280;42713;42.676;23.352;2023-09-19T11:58:44;94883.16;;;25.27;43.96
56831;BME280;42713;42.676;23.352;2023-09-19T12:01:14;94872.09;;;25.29;43.69
56831;BME280;42713;42.676;23.352;2023-09-19T12:03:46;94877.69;;;25.36;43.27
56831;BME280;42713;42.676;23.352;2023-09-19T12:06:15;94888.47;;;25.48;43.86
56831;BME280;42713;42.676;23.352;2023-09-19T12:08:44;94867.69;;;25.58;44.12
56831;BME280;42713;42.676;23.352;2023-09-19T12:11:13;94870.69;;;25.69;43.18
56831;BME280;42713;42.676;23.352;2023-09-19T12:13:44;94856.06;;;25.78;43.00
56831;BME280;42713;42.676;23.352;2023-09-19T12:16:17;94860.28;;;25.92;42.74
56831;BME280;42713;42.676;23.352;2023-09-19T12:18:44;94856.72;;;26.00;42.33
56831;BME280;42713;42.676;23.352;2023-09-19T12:21:30;94859.94;;;26.06;42.11
56831;BME280;42713;42.676;23.352;2023-09-19T12:24:11;94852.25;;;26.17;41.90
56831;BME280;42713;42.676;23.352;2023-09-19T12:26:43;94851.66;;;26.23;41.75
56831;BME280;42713;42.676;23.352;2023-09-19T12:29:19;94849.06;;;26.39;41.62
56831;BME280;42713;42.676;23.352;2023-09-19T12:31:55;94842.69;;;26.60;41.78
56831;BME280;42713;42.676;23.352;2023-09-19T12:34:26;94837.94;;;26.82;41.12
56831;BME280;42713;42.676;23.352;2023-09-19T12:37:07;94832.13;;;26.96;40.55
56831;BME280;42713;42.676;23.352;2023-09-19T12:39:43;94825.22;;;27.11;39.74
56831;BME280;42713;42.676;23.352;2023-09-19T12:42:14;94829.13;;;27.29;39.44
56831;BME280;42713;42.676;23.352;2023-09-19T12:44:41;94826.13;;;27.47;39.26
56831;BME280;42713;42.676;23.352;2023-09-19T12:47:13;94827.75;;;27.68;38.78
56831;BME280;42713;42.676;23.352;2023-09-19T12:50:12;94820.88;;;27.86;38.42
56831;BME280;42713;42.676;23.352;2023-09-19T12:52:40;94818.22;;;28.06;38.36
56831;BME280;42713;42.676;23.352;2023-09-19T12:55:06;94817.09;;;28.26;37.97
56831;BME280;42713;42.676;23.352;2023-09-19T12:57:35;94824.41;;;28.46;37.22
56831;BME280;42713;42.676;23.352;2023-09-19T13:00:04;94812.06;;;28.64;36.71
56831;BME280;42713;42.676;23.352;2023-09-19T13:02:37;94806.69;;;28.84;36.56
56831;BME280;42713;42.676;23.352;2023-09-19T13:05:03;94807.28;;;28.97;35.71
56831;BME280;42713;42.676;23.352;2023-09-19T13:07:42;94804.03;;;29.11;35.97
56831;BME280;42713;42.676;23.352;2023-09-19T13:10:09;94799.31;;;29.27;36.04
56831;BME280;42713;42.676;23.352;2023-09-19T13:12:36;94795.50;;;29.52;35.71
56831;BME280;42713;42.676;23.352;2023-09-19T13:15:13;94791.47;;;29.69;35.48
56831;BME280;42713;42.676;23.352;2023-09-19T13:17:45;94800.63;;;29.87;35.01
56831;BME280;42713;42.676;23.352;2023-09-19T13:20:26;94791.69;;;30.10;34.45
56831;BME280;42713;42.676;23.352;2023-09-19T13:23:00;94786.16;;;30.33;34.21
56831;BME280;42713;42.676;23.352;2023-09-19T13:25:31;94794.59;;;30.58;34.08
56831;BME280;42713;42.676;23.352;2023-09-19T13:27:58;94782.81;;;30.78;33.45
56831;BME280;42713;42.676;23.352;2023-09-19T13:30:28;94783.03;;;30.99;32.96
56831;BME280;42713;42.676;23.352;2023-09-19T13:33:09;94766.59;;;31.19;32.39
56831;BME280;42713;42.676;23.352;2023-09-19T13:35:36;94765.97;;;31.36;32.82
56831;BME280;42713;42.676;23.352;2023-09-19T13:38:04;94768.41;;;31.56;32.06
56831;BME280;42713;42.676;23.352;2023-09-19T13:40:29;94765.03;;;31.70;31.69
56831;BME280;42713;42.676;23.352;2023-09-19T13:43:08;94764.34;;;31.84;31.16
56831;BME280;42713;42.676;23.352;2023-09-19T13:45:33;94764.44;;;31.98;31.38
56831;BME280;42713;42.676;23.352;2023-09-19T13:47:59;94764.47;;;32.17;31.68
56831;BME280;42713;42.676;23.352;2023-09-19T13:50:25;94762.22;;;32.29;31.58
56831;BME280;42713;42.676;23.352;2023-09-19T13:52:55;94756.47;;;32.46;30.28
56831;BME280;42713;42.676;23.352;2023-09-19T13:55:20;94758.84;;;32.58;30.63
56831;BME280;42713;42.676;23.352;2023-09-19T13:57:49;94760.41;;;32.70;30.20
56831;BME280;42713;42.676;23.352;2023-09-19T14:00:17;94755.41;;;32.83;29.99
56831;BME280;42713;42.676;23.352;2023-09-19T14:02:43;94752.72;;;32.94;30.40